Vance Air Force Base
KEND : now visible

Airfield :











YOU CAN JOIN US ON...

 
LOGIN :

Register | Disclaimer

   EN    FR    IT 

 









Legend :    VFR   Marginal VFR   IFR   Intensive IFR   Very Intensive IFR
Visi :
Ceiling :
>= 8 km
>= 3000ft
5 to 8 km
1000 to 3000 ft
1500m to 5 km
500 to 1000 ft
800 to 1500m
200 to 500 ft
< 800m
< 200 ft
Symbols :   Thunderstorms  Fog  Heavy snow  Heavy precipitations  Wind > 20 kt






- Airport Elevation : 1307 ft


KEND - Vance Air Force Base

CURRENT METAR :
  • 212355Z 33003KT 10SM CLR 17/00 A3024 RMK AO2A SLP242 T01680000 10178 20139 57017 $

EXPIRED METARs :
  • 212255Z AUTO 36005G16KT 10SM CLR 18/00 A3025 RMK AO2 SLP245 T01760003 $
  • 212155Z AUTO 34007KT 10SM FEW065 17/M00 A3026 RMK AO2 SLP248 T01711002 $
  • 212055Z AUTO 33011G16KT 10SM FEW060 17/00 A3030 RMK AO2 SLP262 T01740001 57027 $
  • 211955Z AUTO 26004KT 10SM SCT060 16/M00 A3032 RMK AO2 SLP269 T01601003 $
  • 211855Z AUTO 06003KT 10SM FEW080 15/00 A3035 RMK AO2 SLP280 T01540000 $

TAF TAF KEND
Valid from the 21 at 18:00 until the 23 at 00:00 UTC


211800Z 2118/2224 34012KT 9999 SCT070 QNH3025INS
BECMG 2123/2200 VRB06KT 9999 SKC QNH3024INS
BECMG 2204/2205 18012KT 9999 SKC QNH3017INS
BECMG 2213/2214 20015G25KT 9999 SKC QNH2990INS TX19/2218Z TN06/2212Z
KZKC FIR / North America



MET'MAP, your aeronautical weather chart ! - Copyright ORBIFLY December 2007 - Disclaimer

ORBIFLY MET'MAP TEAM :

Programming & Development : Alexandra Zaïnal
Original concept : Baudouin d'Aumeries
Technical & hardware support : Manuel Goepfert
Assistance : Marc-Olivier Méhu




SOURCES & CREDITS :

   NOAA       Earth
Advisory